sensor_id;sensor_type;location;lat;lon;timestamp;P1;durP1;ratioP1;P2;durP2;ratioP2
52458;SDS011;38372;52.902;6.024;2023-04-01T00:00:21;14.40;;;7.38;;
52458;SDS011;38372;52.902;6.024;2023-04-01T00:02:47;14.15;;;9.10;;
52458;SDS011;38372;52.902;6.024;2023-04-01T00:05:14;12.43;;;6.88;;
52458;SDS011;38372;52.902;6.024;2023-04-01T00:07:41;13.00;;;7.50;;
52458;SDS011;38372;52.902;6.024;2023-04-01T00:10:09;10.75;;;6.75;;
52458;SDS011;38372;52.902;6.024;2023-04-01T00:12:37;9.73;;;6.13;;
52458;SDS011;38372;52.902;6.024;2023-04-01T00:15:04;9.88;;;5.57;;
52458;SDS011;38372;52.902;6.024;2023-04-01T00:17:32;9.75;;;6.07;;
52458;SDS011;38372;52.902;6.024;2023-04-01T00:19:58;9.57;;;4.90;;
52458;SDS011;38372;52.902;6.024;2023-04-01T00:22:24;9.20;;;5.63;;
52458;SDS011;38372;52.902;6.024;2023-04-01T00:24:51;7.10;;;4.93;;
52458;SDS011;38372;52.902;6.024;2023-04-01T00:27:17;8.88;;;4.32;;
52458;SDS011;38372;52.902;6.024;2023-04-01T00:29:43;7.70;;;4.78;;
52458;SDS011;38372;52.902;6.024;2023-04-01T00:32:10;8.30;;;5.13;;
52458;SDS011;38372;52.902;6.024;2023-04-01T00:34:36;7.40;;;4.05;;
52458;SDS011;38372;52.902;6.024;2023-04-01T00:37:02;8.32;;;4.93;;
52458;SDS011;38372;52.902;6.024;2023-04-01T00:39:29;8.90;;;5.20;;
52458;SDS011;38372;52.902;6.024;2023-04-01T00:41:55;11.05;;;5.47;;
52458;SDS011;38372;52.902;6.024;2023-04-01T00:44:26;10.90;;;5.88;;
52458;SDS011;38372;52.902;6.024;2023-04-01T00:46:53;12.05;;;5.93;;
52458;SDS011;38372;52.902;6.024;2023-04-01T00:49:20;10.55;;;5.78;;
52458;SDS011;38372;52.902;6.024;2023-04-01T00:51:50;10.77;;;5.97;;
52458;SDS011;38372;52.902;6.024;2023-04-01T00:54:20;10.63;;;6.43;;
52458;SDS011;38372;52.902;6.024;2023-04-01T00:56:59;11.60;;;5.55;;
52458;SDS011;38372;52.902;6.024;2023-04-01T00:59:45;10.90;;;6.32;;
52458;SDS011;38372;52.902;6.024;2023-04-01T01:02:16;9.85;;;5.68;;
52458;SDS011;38372;52.902;6.024;2023-04-01T01:04:43;11.70;;;6.53;;
52458;SDS011;38372;52.902;6.024;2023-04-01T01:10:00;17.00;;;7.93;;
52458;SDS011;38372;52.902;6.024;2023-04-01T01:33:48;11.45;;;6.82;;
52458;SDS011;38372;52.902;6.024;2023-04-01T01:36:28;13.10;;;7.95;;
52458;SDS011;38372;52.902;6.024;2023-04-01T01:39:00;15.00;;;7.15;;
52458;SDS011;38372;52.902;6.024;2023-04-01T01:41:30;12.43;;;6.75;;
52458;SDS011;38372;52.902;6.024;2023-04-01T01:43:57;10.50;;;6.35;;
52458;SDS011;38372;52.902;6.024;2023-04-01T01:48:54;12.82;;;6.90;;
52458;SDS011;38372;52.902;6.024;2023-04-01T01:51:21;12.38;;;6.25;;
52458;SDS011;38372;52.902;6.024;2023-04-01T01:53:48;11.13;;;5.93;;
52458;SDS011;38372;52.902;6.024;2023-04-01T01:56:13;11.85;;;7.30;;
52458;SDS011;38372;52.902;6.024;2023-04-01T01:58:43;11.95;;;6.80;;
52458;SDS011;38372;52.902;6.024;2023-04-01T02:01:13;14.50;;;6.45;;
52458;SDS011;38372;52.902;6.024;2023-04-01T02:03:43;13.13;;;6.85;;
52458;SDS011;38372;52.902;6.024;2023-04-01T02:06:10;14.60;;;7.57;;
52458;SDS011;38372;52.902;6.024;2023-04-01T02:08:39;17.73;;;7.18;;
52458;SDS011;38372;52.902;6.024;2023-04-01T02:11:12;17.70;;;7.90;;
52458;SDS011;38372;52.902;6.024;2023-04-01T02:13:43;13.18;;;7.45;;
52458;SDS011;38372;52.902;6.024;2023-04-01T02:16:36;15.48;;;6.95;;
52458;SDS011;38372;52.902;6.024;2023-04-01T02:19:08;16.52;;;8.07;;
52458;SDS011;38372;52.902;6.024;2023-04-01T02:21:37;14.38;;;7.50;;
52458;SDS011;38372;52.902;6.024;2023-04-01T02:24:06;21.80;;;9.10;;
52458;SDS011;38372;52.902;6.024;2023-04-01T02:26:35;20.92;;;8.77;;
52458;SDS011;38372;52.902;6.024;2023-04-01T02:29:01;17.17;;;8.35;;
52458;SDS011;38372;52.902;6.024;2023-04-01T02:31:29;14.25;;;7.95;;
52458;SDS011;38372;52.902;6.024;2023-04-01T02:33:57;21.27;;;9.23;;
52458;SDS011;38372;52.902;6.024;2023-04-01T02:36:23;16.67;;;8.50;;
52458;SDS011;38372;52.902;6.024;2023-04-01T02:38:50;15.00;;;7.78;;
52458;SDS011;38372;52.902;6.024;2023-04-01T02:41:17;19.40;;;9.00;;
52458;SDS011;38372;52.902;6.024;2023-04-01T02:43:43;15.93;;;8.75;;
52458;SDS011;38372;52.902;6.024;2023-04-01T02:46:08;14.93;;;8.02;;
52458;SDS011;38372;52.902;6.024;2023-04-01T02:48:34;21.42;;;9.00;;
52458;SDS011;38372;52.902;6.024;2023-04-01T02:51:00;17.40;;;8.48;;
52458;SDS011;38372;52.902;6.024;2023-04-01T02:53:26;14.90;;;7.22;;
52458;SDS011;38372;52.902;6.024;2023-04-01T02:55:52;16.65;;;7.63;;
52458;SDS011;38372;52.902;6.024;2023-04-01T02:58:18;13.55;;;7.05;;
52458;SDS011;38372;52.902;6.024;2023-04-01T03:00:44;14.80;;;6.90;;
52458;SDS011;38372;52.902;6.024;2023-04-01T03:03:09;14.63;;;6.80;;
52458;SDS011;38372;52.902;6.024;2023-04-01T03:05:35;9.60;;;5.43;;
52458;SDS011;38372;52.902;6.024;2023-04-01T03:08:02;8.68;;;4.65;;
52458;SDS011;38372;52.902;6.024;2023-04-01T03:10:28;10.30;;;4.80;;
52458;SDS011;38372;52.902;6.024;2023-04-01T03:12:54;11.55;;;5.07;;
52458;SDS011;38372;52.902;6.024;2023-04-01T03:15:19;7.47;;;3.75;;
52458;SDS011;38372;52.902;6.024;2023-04-01T03:17:45;9.30;;;3.38;;
52458;SDS011;38372;52.902;6.024;2023-04-01T03:20:11;5.40;;;3.20;;
52458;SDS011;38372;52.902;6.024;2023-04-01T03:22:38;7.50;;;3.50;;
52458;SDS011;38372;52.902;6.024;2023-04-01T03:25:04;6.88;;;3.30;;
52458;SDS011;38372;52.902;6.024;2023-04-01T03:27:32;4.25;;;2.58;;
52458;SDS011;38372;52.902;6.024;2023-04-01T03:30:00;7.43;;;3.30;;
52458;SDS011;38372;52.902;6.024;2023-04-01T03:32:28;6.05;;;2.60;;
52458;SDS011;38372;52.902;6.024;2023-04-01T03:34:53;4.88;;;2.42;;
52458;SDS011;38372;52.902;6.024;2023-04-01T03:37:19;7.72;;;3.50;;
52458;SDS011;38372;52.902;6.024;2023-04-01T03:39:45;8.70;;;2.90;;
52458;SDS011;38372;52.902;6.024;2023-04-01T03:42:11;5.05;;;2.80;;
52458;SDS011;38372;52.902;6.024;2023-04-01T03:44:37;7.57;;;3.10;;
52458;SDS011;38372;52.902;6.024;2023-04-01T03:47:03;5.13;;;2.63;;
52458;SDS011;38372;52.902;6.024;2023-04-01T03:49:29;5.20;;;2.90;;
52458;SDS011;38372;52.902;6.024;2023-04-01T03:51:55;5.90;;;2.70;;
52458;SDS011;38372;52.902;6.024;2023-04-01T03:54:20;4.50;;;2.42;;
52458;SDS011;38372;52.902;6.024;2023-04-01T03:56:46;6.10;;;2.97;;
52458;SDS011;38372;52.902;6.024;2023-04-01T03:59:12;6.15;;;3.30;;
52458;SDS011;38372;52.902;6.024;2023-04-01T04:01:38;6.45;;;3.05;;
52458;SDS011;38372;52.902;6.024;2023-04-01T04:04:04;5.85;;;2.80;;
52458;SDS011;38372;52.902;6.024;2023-04-01T04:06:30;4.68;;;2.65;;
52458;SDS011;38372;52.902;6.024;2023-04-01T04:08:57;8.13;;;3.53;;
52458;SDS011;38372;52.902;6.024;2023-04-01T04:11:23;7.47;;;3.15;;
52458;SDS011;38372;52.902;6.024;2023-04-01T04:13:49;8.82;;;3.70;;
52458;SDS011;38372;52.902;6.024;2023-04-01T04:16:15;6.72;;;3.13;;
52458;SDS011;38372;52.902;6.024;2023-04-01T04:18:42;8.73;;;3.70;;
52458;SDS011;38372;52.902;6.024;2023-04-01T04:21:11;10.88;;;4.65;;
52458;SDS011;38372;52.902;6.024;2023-04-01T04:23:40;12.32;;;4.80;;
52458;SDS011;38372;52.902;6.024;2023-04-01T04:26:07;10.40;;;4.25;;
52458;SDS011;38372;52.902;6.024;2023-04-01T04:28:35;12.98;;;4.40;;
52458;SDS011;38372;52.902;6.024;2023-04-01T04:31:01;12.85;;;4.38;;
52458;SDS011;38372;52.902;6.024;2023-04-01T04:33:27;10.55;;;3.65;;
52458;SDS011;38372;52.902;6.024;2023-04-01T04:35:57;11.55;;;4.32;;
52458;SDS011;38372;52.902;6.024;2023-04-01T04:38:24;10.02;;;3.42;;
52458;SDS011;38372;52.902;6.024;2023-04-01T04:40:50;8.40;;;3.38;;
52458;SDS011;38372;52.902;6.024;2023-04-01T04:43:16;8.38;;;2.80;;
52458;SDS011;38372;52.902;6.024;2023-04-01T04:45:43;6.55;;;2.63;;
52458;SDS011;38372;52.902;6.024;2023-04-01T04:48:09;7.45;;;2.90;;
52458;SDS011;38372;52.902;6.024;2023-04-01T04:50:43;6.88;;;3.00;;
52458;SDS011;38372;52.902;6.024;2023-04-01T04:53:12;6.93;;;2.60;;
52458;SDS011;38372;52.902;6.024;2023-04-01T04:55:46;7.97;;;2.70;;
52458;SDS011;38372;52.902;6.024;2023-04-01T04:58:13;7.78;;;2.75;;
52458;SDS011;38372;52.902;6.024;2023-04-01T05:00:40;8.60;;;3.53;;
52458;SDS011;38372;52.902;6.024;2023-04-01T05:03:06;6.78;;;3.25;;
52458;SDS011;38372;52.902;6.024;2023-04-01T05:05:33;6.78;;;3.33;;
52458;SDS011;38372;52.902;6.024;2023-04-01T05:07:59;10.60;;;4.35;;
52458;SDS011;38372;52.902;6.024;2023-04-01T05:10:25;9.10;;;3.92;;
52458;SDS011;38372;52.902;6.024;2023-04-01T05:12:51;8.55;;;3.65;;
52458;SDS011;38372;52.902;6.024;2023-04-01T05:15:17;9.57;;;4.00;;
52458;SDS011;38372;52.902;6.024;2023-04-01T05:17:42;10.98;;;4.68;;
52458;SDS011;38372;52.902;6.024;2023-04-01T05:20:08;13.25;;;5.53;;
52458;SDS011;38372;52.902;6.024;2023-04-01T05:22:34;10.15;;;5.05;;
52458;SDS011;38372;52.902;6.024;2023-04-01T05:25:00;20.08;;;7.18;;
52458;SDS011;38372;52.902;6.024;2023-04-01T05:27:26;16.83;;;7.05;;
52458;SDS011;38372;52.902;6.024;2023-04-01T05:29:52;14.23;;;7.13;;
52458;SDS011;38372;52.902;6.024;2023-04-01T05:32:17;20.23;;;8.18;;
52458;SDS011;38372;52.902;6.024;2023-04-01T05:34:43;18.52;;;8.25;;
52458;SDS011;38372;52.902;6.024;2023-04-01T05:37:09;19.42;;;9.02;;
52458;SDS011;38372;52.902;6.024;2023-04-01T05:39:36;18.90;;;9.30;;
52458;SDS011;38372;52.902;6.024;2023-04-01T05:42:03;24.58;;;10.38;;
52458;SDS011;38372;52.902;6.024;2023-04-01T05:44:30;21.73;;;9.40;;
52458;SDS011;38372;52.902;6.024;2023-04-01T05:46:56;25.77;;;11.05;;
52458;SDS011;38372;52.902;6.024;2023-04-01T05:49:22;25.70;;;11.05;;
52458;SDS011;38372;52.902;6.024;2023-04-01T05:51:47;22.83;;;9.98;;
52458;SDS011;38372;52.902;6.024;2023-04-01T05:54:13;19.92;;;10.43;;
52458;SDS011;38372;52.902;6.024;2023-04-01T05:56:39;21.52;;;10.75;;
52458;SDS011;38372;52.902;6.024;2023-04-01T05:59:05;26.30;;;11.38;;
52458;SDS011;38372;52.902;6.024;2023-04-01T06:01:31;20.85;;;10.48;;
52458;SDS011;38372;52.902;6.024;2023-04-01T06:03:56;20.77;;;10.07;;
52458;SDS011;38372;52.902;6.024;2023-04-01T06:06:23;24.63;;;10.95;;
52458;SDS011;38372;52.902;6.024;2023-04-01T06:08:51;22.02;;;10.57;;
52458;SDS011;38372;52.902;6.024;2023-04-01T06:24:40;19.73;;;9.48;;
52458;SDS011;38372;52.902;6.024;2023-04-01T06:34:49;18.77;;;9.00;;
52458;SDS011;38372;52.902;6.024;2023-04-01T06:40:35;13.93;;;7.35;;
52458;SDS011;38372;52.902;6.024;2023-04-01T06:54:30;12.32;;;6.97;;
52458;SDS011;38372;52.902;6.024;2023-04-01T06:56:58;14.98;;;6.97;;
52458;SDS011;38372;52.902;6.024;2023-04-01T06:59:32;14.88;;;6.70;;
52458;SDS011;38372;52.902;6.024;2023-04-01T07:04:38;17.52;;;8.02;;
52458;SDS011;38372;52.902;6.024;2023-04-01T07:09:57;13.90;;;7.00;;
52458;SDS011;38372;52.902;6.024;2023-04-01T07:15:04;13.05;;;6.55;;
52458;SDS011;38372;52.902;6.024;2023-04-01T07:17:38;17.80;;;7.53;;
52458;SDS011;38372;52.902;6.024;2023-04-01T07:20:39;16.25;;;7.03;;
52458;SDS011;38372;52.902;6.024;2023-04-01T07:23:04;9.50;;;5.50;;
52458;SDS011;38372;52.902;6.024;2023-04-01T07:25:43;8.05;;;4.10;;
52458;SDS011;38372;52.902;6.024;2023-04-01T07:28:13;10.82;;;4.88;;
52458;SDS011;38372;52.902;6.024;2023-04-01T07:30:46;10.63;;;5.28;;
52458;SDS011;38372;52.902;6.024;2023-04-01T07:33:25;13.85;;;6.32;;
52458;SDS011;38372;52.902;6.024;2023-04-01T07:43:53;4.97;;;2.40;;
52458;SDS011;38372;52.902;6.024;2023-04-01T07:49:51;5.90;;;3.28;;
52458;SDS011;38372;52.902;6.024;2023-04-01T07:54:55;8.30;;;4.25;;
52458;SDS011;38372;52.902;6.024;2023-04-01T07:57:48;6.95;;;3.80;;
52458;SDS011;38372;52.902;6.024;2023-04-01T08:00:23;11.32;;;5.75;;
52458;SDS011;38372;52.902;6.024;2023-04-01T08:05:32;12.38;;;7.55;;
52458;SDS011;38372;52.902;6.024;2023-04-01T08:10:57;14.98;;;8.77;;
52458;SDS011;38372;52.902;6.024;2023-04-01T08:13:39;15.48;;;8.75;;
52458;SDS011;38372;52.902;6.024;2023-04-01T08:22:16;17.55;;;10.30;;
52458;SDS011;38372;52.902;6.024;2023-04-01T08:24:50;14.85;;;9.38;;
52458;SDS011;38372;52.902;6.024;2023-04-01T08:27:31;17.73;;;10.05;;
52458;SDS011;38372;52.902;6.024;2023-04-01T08:32:46;15.30;;;9.18;;
52458;SDS011;38372;52.902;6.024;2023-04-01T08:35:51;14.98;;;8.98;;
52458;SDS011;38372;52.902;6.024;2023-04-01T08:38:27;17.58;;;10.82;;
52458;SDS011;38372;52.902;6.024;2023-04-01T08:42:12;15.48;;;10.88;;
52458;SDS011;38372;52.902;6.024;2023-04-01T08:49:43;16.73;;;10.73;;
52458;SDS011;38372;52.902;6.024;2023-04-01T09:06:24;19.35;;;12.07;;
52458;SDS011;38372;52.902;6.024;2023-04-01T09:27:55;26.67;;;15.13;;
52458;SDS011;38372;52.902;6.024;2023-04-01T09:30:33;23.88;;;14.75;;
52458;SDS011;38372;52.902;6.024;2023-04-01T09:38:42;21.55;;;13.57;;
52458;SDS011;38372;52.902;6.024;2023-04-01T09:49:55;21.73;;;13.77;;
52458;SDS011;38372;52.902;6.024;2023-04-01T09:57:46;24.10;;;14.30;;
52458;SDS011;38372;52.902;6.024;2023-04-01T10:25:05;18.75;;;11.45;;
52458;SDS011;38372;52.902;6.024;2023-04-01T10:38:51;16.13;;;10.25;;
52458;SDS011;38372;52.902;6.024;2023-04-01T10:46:50;9.30;;;5.97;;
52458;SDS011;38372;52.902;6.024;2023-04-01T10:49:48;10.48;;;6.45;;
52458;SDS011;38372;52.902;6.024;2023-04-01T10:52:41;9.23;;;6.50;;
52458;SDS011;38372;52.902;6.024;2023-04-01T11:07:09;8.32;;;5.75;;
52458;SDS011;38372;52.902;6.024;2023-04-01T11:13:13;7.40;;;5.22;;
52458;SDS011;38372;52.902;6.024;2023-04-01T11:16:09;6.65;;;4.78;;
52458;SDS011;38372;52.902;6.024;2023-04-01T11:38:30;7.30;;;6.05;;
52458;SDS011;38372;52.902;6.024;2023-04-01T11:44:22;8.32;;;6.13;;
52458;SDS011;38372;52.902;6.024;2023-04-01T11:47:13;8.75;;;6.50;;
52458;SDS011;38372;52.902;6.024;2023-04-01T11:50:08;8.48;;;6.43;;
52458;SDS011;38372;52.902;6.024;2023-04-01T11:55:51;7.90;;;5.40;;
52458;SDS011;38372;52.902;6.024;2023-04-01T12:04:00;8.73;;;5.70;;
52458;SDS011;38372;52.902;6.024;2023-04-01T12:09:16;6.43;;;5.10;;
52458;SDS011;38372;52.902;6.024;2023-04-01T12:15:00;6.53;;;5.18;;
52458;SDS011;38372;52.902;6.024;2023-04-01T12:17:49;6.15;;;5.00;;
52458;SDS011;38372;52.902;6.024;2023-04-01T12:42:55;8.20;;;4.80;;
52458;SDS011;38372;52.902;6.024;2023-04-01T12:48:45;5.90;;;4.55;;
52458;SDS011;38372;52.902;6.024;2023-04-01T13:11:15;6.45;;;4.35;;
52458;SDS011;38372;52.902;6.024;2023-04-01T13:13:50;5.22;;;4.28;;
52458;SDS011;38372;52.902;6.024;2023-04-01T13:16:46;7.03;;;4.28;;
52458;SDS011;38372;52.902;6.024;2023-04-01T13:19:17;4.73;;;4.07;;
52458;SDS011;38372;52.902;6.024;2023-04-01T13:21:58;5.65;;;4.15;;
52458;SDS011;38372;52.902;6.024;2023-04-01T13:32:15;6.13;;;4.20;;
52458;SDS011;38372;52.902;6.024;2023-04-01T13:35:20;5.68;;;4.68;;
52458;SDS011;38372;52.902;6.024;2023-04-01T13:40:49;4.25;;;3.30;;
52458;SDS011;38372;52.902;6.024;2023-04-01T13:43:22;4.30;;;3.47;;
52458;SDS011;38372;52.902;6.024;2023-04-01T13:52:02;3.85;;;3.22;;
52458;SDS011;38372;52.902;6.024;2023-04-01T13:54:00;4.72;;;3.67;;
52458;SDS011;38372;52.902;6.024;2023-04-01T14:15:32;5.93;;;3.63;;
52458;SDS011;38372;52.902;6.024;2023-04-01T14:27:33;3.22;;;2.80;;
52458;SDS011;38372;52.902;6.024;2023-04-01T14:35:55;3.10;;;2.67;;
52458;SDS011;38372;52.902;6.024;2023-04-01T14:50:01;3.72;;;2.35;;
52458;SDS011;38372;52.902;6.024;2023-04-01T14:52:35;3.00;;;2.38;;
52458;SDS011;38372;52.902;6.024;2023-04-01T14:55:24;3.75;;;2.38;;
52458;SDS011;38372;52.902;6.024;2023-04-01T15:03:49;3.45;;;2.20;;
52458;SDS011;38372;52.902;6.024;2023-04-01T15:09:24;2.60;;;2.10;;
52458;SDS011;38372;52.902;6.024;2023-04-01T15:15:21;2.55;;;2.10;;
52458;SDS011;38372;52.902;6.024;2023-04-01T15:18:08;3.10;;;2.33;;
52458;SDS011;38372;52.902;6.024;2023-04-01T15:23:31;2.53;;;2.22;;
52458;SDS011;38372;52.902;6.024;2023-04-01T15:42:57;2.20;;;1.85;;
52458;SDS011;38372;52.902;6.024;2023-04-01T15:51:24;8.57;;;4.55;;
52458;SDS011;38372;52.902;6.024;2023-04-01T15:59:50;4.50;;;2.28;;
52458;SDS011;38372;52.902;6.024;2023-04-01T16:22:30;2.95;;;2.22;;
52458;SDS011;38372;52.902;6.024;2023-04-01T16:30:50;3.45;;;2.58;;
52458;SDS011;38372;52.902;6.024;2023-04-01T16:38:45;3.80;;;2.55;;
52458;SDS011;38372;52.902;6.024;2023-04-01T16:41:41;4.88;;;4.28;;
52458;SDS011;38372;52.902;6.024;2023-04-01T16:47:46;4.60;;;3.10;;
52458;SDS011;38372;52.902;6.024;2023-04-01T16:50:26;6.13;;;3.63;;
52458;SDS011;38372;52.902;6.024;2023-04-01T16:58:10;5.63;;;3.42;;
52458;SDS011;38372;52.902;6.024;2023-04-01T17:00:49;5.38;;;3.05;;
52458;SDS011;38372;52.902;6.024;2023-04-01T17:03:27;5.60;;;3.33;;
52458;SDS011;38372;52.902;6.024;2023-04-01T17:12:05;6.25;;;3.30;;
52458;SDS011;38372;52.902;6.024;2023-04-01T17:14:42;5.82;;;4.00;;
52458;SDS011;38372;52.902;6.024;2023-04-01T17:20:14;8.75;;;4.07;;
52458;SDS011;38372;52.902;6.024;2023-04-01T17:28:44;8.70;;;5.70;;
52458;SDS011;38372;52.902;6.024;2023-04-01T17:31:32;11.05;;;6.63;;
52458;SDS011;38372;52.902;6.024;2023-04-01T17:34:29;5.32;;;3.97;;
52458;SDS011;38372;52.902;6.024;2023-04-01T17:37:40;6.78;;;4.35;;
52458;SDS011;38372;52.902;6.024;2023-04-01T17:45:47;6.07;;;4.40;;
52458;SDS011;38372;52.902;6.024;2023-04-01T17:48:21;7.80;;;4.32;;
52458;SDS011;38372;52.902;6.024;2023-04-01T17:57:05;9.90;;;5.28;;
52458;SDS011;38372;52.902;6.024;2023-04-01T18:02:30;10.55;;;5.63;;
52458;SDS011;38372;52.902;6.024;2023-04-01T18:14:03;8.80;;;5.40;;
52458;SDS011;38372;52.902;6.024;2023-04-01T18:19:27;7.80;;;5.20;;
52458;SDS011;38372;52.902;6.024;2023-04-01T18:22:09;13.45;;;6.22;;
52458;SDS011;38372;52.902;6.024;2023-04-01T18:24:55;9.88;;;5.70;;
52458;SDS011;38372;52.902;6.024;2023-04-01T18:27:45;8.38;;;5.60;;
52458;SDS011;38372;52.902;6.024;2023-04-01T18:30:17;9.38;;;5.88;;
52458;SDS011;38372;52.902;6.024;2023-04-01T18:40:32;9.68;;;5.47;;
52458;SDS011;38372;52.902;6.024;2023-04-01T18:43:22;8.68;;;4.82;;
52458;SDS011;38372;52.902;6.024;2023-04-01T18:46:07;9.07;;;4.80;;
52458;SDS011;38372;52.902;6.024;2023-04-01T18:51:44;10.03;;;6.27;;
52458;SDS011;38372;52.902;6.024;2023-04-01T18:57:26;10.27;;;5.95;;
52458;SDS011;38372;52.902;6.024;2023-04-01T19:00:24;10.20;;;5.63;;
52458;SDS011;38372;52.902;6.024;2023-04-01T19:05:33;11.07;;;5.40;;
52458;SDS011;38372;52.902;6.024;2023-04-01T19:11:12;9.20;;;6.47;;
52458;SDS011;38372;52.902;6.024;2023-04-01T19:17:15;7.40;;;5.43;;
52458;SDS011;38372;52.902;6.024;2023-04-01T19:30:51;8.93;;;6.13;;
52458;SDS011;38372;52.902;6.024;2023-04-01T19:36:47;8.57;;;5.03;;
52458;SDS011;38372;52.902;6.024;2023-04-01T19:53:49;9.25;;;5.38;;
52458;SDS011;38372;52.902;6.024;2023-04-01T19:57:05;11.05;;;6.95;;
52458;SDS011;38372;52.902;6.024;2023-04-01T19:59:22;11.25;;;6.75;;
52458;SDS011;38372;52.902;6.024;2023-04-01T20:04:37;9.95;;;6.75;;
52458;SDS011;38372;52.902;6.024;2023-04-01T20:07:09;10.27;;;6.88;;
52458;SDS011;38372;52.902;6.024;2023-04-01T20:15:21;13.10;;;6.50;;
52458;SDS011;38372;52.902;6.024;2023-04-01T20:17:50;13.23;;;6.75;;
52458;SDS011;38372;52.902;6.024;2023-04-01T20:20:19;10.90;;;7.15;;
52458;SDS011;38372;52.902;6.024;2023-04-01T20:25:51;12.40;;;7.07;;
52458;SDS011;38372;52.902;6.024;2023-04-01T20:30:59;13.18;;;7.72;;
52458;SDS011;38372;52.902;6.024;2023-04-01T20:36:31;10.45;;;6.97;;
52458;SDS011;38372;52.902;6.024;2023-04-01T20:50:27;13.77;;;8.70;;
52458;SDS011;38372;52.902;6.024;2023-04-01T20:58:24;14.45;;;8.00;;
52458;SDS011;38372;52.902;6.024;2023-04-01T21:01:15;15.48;;;7.63;;
52458;SDS011;38372;52.902;6.024;2023-04-01T21:09:37;13.00;;;6.93;;
52458;SDS011;38372;52.902;6.024;2023-04-01T21:15:51;12.80;;;6.65;;
52458;SDS011;38372;52.902;6.024;2023-04-01T21:18:33;15.40;;;6.65;;
52458;SDS011;38372;52.902;6.024;2023-04-01T21:23:55;12.00;;;5.70;;
52458;SDS011;38372;52.902;6.024;2023-04-01T21:27:09;15.25;;;7.20;;
52458;SDS011;38372;52.902;6.024;2023-04-01T21:30:02;10.95;;;7.10;;
52458;SDS011;38372;52.902;6.024;2023-04-01T21:37:54;10.70;;;6.18;;
52458;SDS011;38372;52.902;6.024;2023-04-01T21:56:20;12.60;;;5.53;;
52458;SDS011;38372;52.902;6.024;2023-04-01T22:01:58;8.95;;;5.75;;
52458;SDS011;38372;52.902;6.024;2023-04-01T22:05:09;12.35;;;6.35;;
52458;SDS011;38372;52.902;6.024;2023-04-01T22:07:50;10.38;;;5.88;;
52458;SDS011;38372;52.902;6.024;2023-04-01T22:10:38;8.30;;;5.78;;
52458;SDS011;38372;52.902;6.024;2023-04-01T22:13:18;8.68;;;4.97;;
52458;SDS011;38372;52.902;6.024;2023-04-01T22:16:02;12.82;;;5.40;;
52458;SDS011;38372;52.902;6.024;2023-04-01T22:18:36;9.02;;;5.25;;
52458;SDS011;38372;52.902;6.024;2023-04-01T22:29:16;9.30;;;4.30;;
52458;SDS011;38372;52.902;6.024;2023-04-01T22:31:47;10.05;;;4.85;;
52458;SDS011;38372;52.902;6.024;2023-04-01T22:37:21;10.23;;;5.07;;
52458;SDS011;38372;52.902;6.024;2023-04-01T22:40:13;10.30;;;5.20;;
52458;SDS011;38372;52.902;6.024;2023-04-01T22:42:47;9.18;;;5.43;;
52458;SDS011;38372;52.902;6.024;2023-04-01T22:48:22;11.38;;;5.47;;
52458;SDS011;38372;52.902;6.024;2023-04-01T22:56:22;9.55;;;4.97;;
52458;SDS011;38372;52.902;6.024;2023-04-01T23:01:35;9.95;;;5.20;;
52458;SDS011;38372;52.902;6.024;2023-04-01T23:04:07;9.57;;;5.28;;
52458;SDS011;38372;52.902;6.024;2023-04-01T23:06:42;11.88;;;6.03;;
52458;SDS011;38372;52.902;6.024;2023-04-01T23:09:15;10.73;;;6.22;;
52458;SDS011;38372;52.902;6.024;2023-04-01T23:11:53;12.98;;;5.53;;
52458;SDS011;38372;52.902;6.024;2023-04-01T23:22:43;11.40;;;4.72;;
52458;SDS011;38372;52.902;6.024;2023-04-01T23:28:23;9.77;;;4.97;;
52458;SDS011;38372;52.902;6.024;2023-04-01T23:30:52;11.32;;;5.13;;
52458;SDS011;38372;52.902;6.024;2023-04-01T23:38:32;12.88;;;5.43;;
52458;SDS011;38372;52.902;6.024;2023-04-01T23:41:00;9.15;;;4.40;;
52458;SDS011;38372;52.902;6.024;2023-04-01T23:43:34;6.80;;;3.92;;
52458;SDS011;38372;52.902;6.024;2023-04-01T23:46:03;9.98;;;4.97;;
52458;SDS011;38372;52.902;6.024;2023-04-01T23:48:36;8.90;;;4.88;;
52458;SDS011;38372;52.902;6.024;2023-04-01T23:51:08;8.27;;;4.07;;
52458;SDS011;38372;52.902;6.024;2023-04-01T23:53:48;13.48;;;6.35;;
52458;SDS011;38372;52.902;6.024;2023-04-01T23:56:31;7.25;;;4.80;;
52458;SDS011;38372;52.902;6.024;2023-04-01T23:59:04;7.47;;;4.65;;
